Time;durP1;ratioP1;P1;durP2;ratioP2;P2;SDS_P1;SDS_P2;PMS_P1;PMS_P2;Temp;Humidity;BMP_temperature;BMP_pressure;BME280_temperature;BME280_humidity;BME280_pressure;Samples;Min_cycle;Max_cycle;Signal;HPM_P1;HPM_P2
2024/01/21 00:01:54;;;;;;;6.63;2.60;;;;;;;;;;4963670;28;20058;-58
2024/01/21 00:04:22;;;;;;;3.80;1.45;;;;;;;;;;4965254;28;20043;-58
2024/01/21 00:06:49;;;;;;;7.32;3.17;;;;;;;;;;4943488;28;20053;-58
2024/01/21 00:09:16;;;;;;;10.13;3.08;;;;;;;;;;4961915;28;20051;-58
2024/01/21 00:11:47;;;;;;;9.20;3.67;;;;;;;;;;4971983;28;20134;-59
2024/01/21 00:14:14;;;;;;;6.45;2.75;;;;;;;;;;4964017;28;20174;-58
2024/01/21 00:16:41;;;;;;;8.63;3.08;;;;;;;;;;4961353;28;20058;-60
2024/01/21 00:19:08;;;;;;;8.07;3.20;;;;;;;;;;4949570;28;20503;-58
2024/01/21 00:21:37;;;;;;;10.98;3.38;;;;;;;;;;4954000;28;20081;-58
2024/01/21 00:24:05;;;;;;;5.90;2.97;;;;;;;;;;4948359;28;20061;-59
2024/01/21 00:26:32;;;;;;;11.03;3.03;;;;;;;;;;4933371;28;20055;-58
2024/01/21 00:29:01;;;;;;;7.28;2.85;;;;;;;;;;4934874;28;20138;-58
2024/01/21 00:31:30;;;;;;;5.88;2.30;;;;;;;;;;4951195;28;20039;-58
2024/01/21 00:33:56;;;;;;;;;;;;;;;;;;4952831;28;20062;-59
2024/01/21 00:36:23;;;;;;;7.15;2.63;;;;;;;;;;4954726;28;20001;-59
2024/01/21 00:38:52;;;;;;;6.07;2.45;;;;;;;;;;4930475;28;20126;-59
2024/01/21 00:41:20;;;;;;;6.63;2.65;;;;;;;;;;4961615;28;20039;-61
2024/01/21 00:43:47;;;;;;;8.50;3.25;;;;;;;;;;4976323;28;20050;-59
2024/01/21 00:46:15;;;;;;;8.25;3.28;;;;;;;;;;4963724;28;20046;-59
2024/01/21 00:48:42;;;;;;;11.57;3.33;;;;;;;;;;4938992;28;20086;-61
2024/01/21 00:51:08;;;;;;;8.95;3.17;;;;;;;;;;4946716;28;20055;-59
2024/01/21 00:53:35;;;;;;;9.20;2.85;;;;;;;;;;4938814;28;20051;-61
2024/01/21 00:56:02;;;;;;;14.50;3.50;;;;;;;;;;4941463;28;20050;-59
2024/01/21 00:58:29;;;;;;;8.50;3.33;;;;;;;;;;4952831;28;20054;-58
2024/01/21 01:00:56;;;;;;;9.75;3.20;;;;;;;;;;4961605;28;20046;-59
2024/01/21 01:03:24;;;;;;;12.77;4.10;;;;;;;;;;4959051;28;20073;-58
2024/01/21 01:05:51;;;;;;;7.82;3.20;;;;;;;;;;4959087;28;20101;-59
2024/01/21 01:08:18;;;;;;;8.63;3.47;;;;;;;;;;4960982;28;20055;-58
2024/01/21 01:10:48;;;;;;;6.80;3.08;;;;;;;;;;4955641;28;20166;-59
2024/01/21 01:13:14;;;;;;;9.60;2.38;;;;;;;;;;4968709;28;20130;-58
2024/01/21 01:15:41;;;;;;;13.40;3.40;;;;;;;;;;4957491;28;20058;-60
2024/01/21 01:18:08;;;;;;;9.50;3.13;;;;;;;;;;4954850;28;20057;-60
2024/01/21 01:20:39;;;;;;;10.90;3.90;;;;;;;;;;4965868;28;20058;-59
2024/01/21 01:23:06;;;;;;;10.40;3.72;;;;;;;;;;4976719;28;20051;-59
2024/01/21 01:25:33;;;;;;;8.75;2.92;;;;;;;;;;4959831;28;20073;-59
2024/01/21 01:27:59;;;;;;;7.50;2.75;;;;;;;;;;4965627;28;20054;-59
2024/01/21 01:30:28;;;;;;;7.25;2.80;;;;;;;;;;4972008;28;20042;-58
2024/01/21 01:32:55;;;;;;;;;;;;;;;;;;4958292;28;20047;-59
2024/01/21 01:35:21;;;;;;;11.27;3.10;;;;;;;;;;4974494;28;19929;-59
2024/01/21 01:37:50;;;;;;;9.25;3.08;;;;;;;;;;4960412;28;20121;-58
2024/01/21 01:40:20;;;;;;;9.05;2.75;;;;;;;;;;4961312;28;20051;-59
2024/01/21 01:42:54;;;;;;;7.82;3.45;;;;;;;;;;4960611;28;20054;-58
2024/01/21 01:45:21;;;;;;;10.30;3.83;;;;;;;;;;4959243;28;20042;-58
2024/01/21 01:47:48;;;;;;;10.48;3.35;;;;;;;;;;4954262;28;20058;-59
2024/01/21 01:50:15;;;;;;;8.63;3.45;;;;;;;;;;4959261;28;20053;-60
2024/01/21 01:52:45;;;;;;;11.10;3.78;;;;;;;;;;4967638;28;20055;-59
2024/01/21 01:55:16;;;;;;;7.68;2.35;;;;;;;;;;4968241;28;20198;-59
2024/01/21 01:57:45;;;;;;;2.80;1.35;;;;;;;;;;4923365;28;20065;-59
2024/01/21 02:00:13;;;;;;;14.63;3.85;;;;;;;;;;4956658;28;20118;-58
2024/01/21 02:02:41;;;;;;;13.30;4.78;;;;;;;;;;4970129;28;20093;-60
2024/01/21 02:05:08;;;;;;;4.85;1.77;;;;;;;;;;4977549;28;20105;-58
2024/01/21 02:07:35;;;;;;;10.10;2.25;;;;;;;;;;4962181;28;20110;-59
2024/01/21 02:10:03;;;;;;;9.63;3.83;;;;;;;;;;4969033;28;20057;-59
2024/01/21 02:12:32;;;;;;;7.47;2.30;;;;;;;;;;4972253;28;20050;-58
2024/01/21 02:14:58;;;;;;;9.10;2.42;;;;;;;;;;4964832;28;20161;-58
2024/01/21 02:17:25;;;;;;;9.48;2.55;;;;;;;;;;4950459;28;20144;-59
2024/01/21 02:19:52;;;;;;;14.48;3.92;;;;;;;;;;4944754;28;20133;-59
2024/01/21 02:22:20;;;;;;;8.82;2.38;;;;;;;;;;4945881;28;20058;-59
2024/01/21 02:25:01;;;;;;;10.55;2.95;;;;;;;;;;4932957;28;20062;-57
2024/01/21 02:27:28;;;;;;;7.22;2.53;;;;;;;;;;4934960;28;20200;-58
2024/01/21 02:29:55;;;;;;;8.98;3.42;;;;;;;;;;4959183;28;20050;-58
2024/01/21 02:32:21;;;;;;;11.05;3.38;;;;;;;;;;4968875;28;20066;-58
2024/01/21 02:34:48;;;;;;;7.65;2.72;;;;;;;;;;4953086;28;20043;-60
2024/01/21 02:37:15;;;;;;;5.05;2.35;;;;;;;;;;4958672;28;20051;-59
2024/01/21 02:39:42;;;;;;;6.07;2.55;;;;;;;;;;4949278;28;20047;-59
2024/01/21 02:42:10;;;;;;;8.25;2.90;;;;;;;;;;4942110;28;20082;-57
2024/01/21 02:44:37;;;;;;;10.63;3.60;;;;;;;;;;4956110;28;20051;-59
2024/01/21 02:47:05;;;;;;;7.30;3.03;;;;;;;;;;4929146;28;20062;-57
2024/01/21 02:49:32;;;;;;;10.35;3.58;;;;;;;;;;4927365;28;20129;-60
2024/01/21 02:52:00;;;;;;;4.35;1.40;;;;;;;;;;4946104;28;20055;-60
2024/01/21 02:54:27;;;;;;;;;;;;;;;;;;4953789;28;20116;-57
2024/01/21 02:56:55;;;;;;;5.13;1.88;;;;;;;;;;5391459;23;20137;-59
2024/01/21 02:59:23;;;;;;;7.38;2.60;;;;;;;;;;4946535;28;20055;-59
2024/01/21 03:01:50;;;;;;;7.25;3.10;;;;;;;;;;4954841;28;20056;-57
2024/01/21 03:04:17;;;;;;;6.22;1.90;;;;;;;;;;4913537;28;21469;-57
2024/01/21 03:06:44;;;;;;;11.82;2.92;;;;;;;;;;4957297;28;20058;-56
2024/01/21 03:09:11;;;;;;;9.48;2.40;;;;;;;;;;4953483;28;20055;-59
2024/01/21 03:11:38;;;;;;;8.60;2.78;;;;;;;;;;4953231;28;20067;-59
2024/01/21 03:14:06;;;;;;;7.05;2.08;;;;;;;;;;4941100;28;20153;-55
2024/01/21 03:16:34;;;;;;;6.95;2.50;;;;;;;;;;4953362;28;20057;-57
2024/01/21 03:19:01;;;;;;;;;;;;;;;;;;4956287;28;20096;-58
2024/01/21 03:21:28;;;;;;;5.10;2.05;;;;;;;;;;4953809;28;19997;-58
2024/01/21 03:23:55;;;;;;;7.60;2.38;;;;;;;;;;4936543;28;20054;-60
2024/01/21 03:26:22;;;;;;;6.60;1.85;;;;;;;;;;4959996;28;20095;-58
2024/01/21 03:28:49;;;;;;;5.10;2.33;;;;;;;;;;4952978;28;20049;-58
2024/01/21 03:31:20;;;;;;;4.10;1.80;;;;;;;;;;4952831;28;20070;-58
2024/01/21 03:33:51;;;;;;;5.60;1.95;;;;;;;;;;4928534;28;20189;-58
2024/01/21 03:36:20;;;;;;;6.63;1.80;;;;;;;;;;4952564;28;20133;-59
2024/01/21 03:38:50;;;;;;;9.68;2.63;;;;;;;;;;4954697;28;20058;-59
2024/01/21 03:41:17;;;;;;;5.85;2.20;;;;;;;;;;4943817;28;20055;-59
2024/01/21 03:43:44;;;;;;;4.80;2.15;;;;;;;;;;4919018;28;20051;-59
2024/01/21 03:46:13;;;;;;;5.63;2.10;;;;;;;;;;4946347;28;20138;-61
2024/01/21 03:48:40;;;;;;;4.20;1.35;;;;;;;;;;4958099;28;20055;-59
2024/01/21 03:51:12;;;;;;;5.93;2.30;;;;;;;;;;4956193;28;20209;-58
2024/01/21 03:53:40;;;;;;;5.05;2.28;;;;;;;;;;4940695;28;20114;-58
2024/01/21 03:56:07;;;;;;;;;;;;;;;;;;4952114;28;20266;-58
2024/01/21 03:58:37;;;;;;;5.55;1.90;;;;;;;;;;4961804;28;19950;-58
2024/01/21 04:01:04;;;;;;;5.97;1.92;;;;;;;;;;4954741;28;20042;-58
2024/01/21 04:03:34;;;;;;;4.22;1.60;;;;;;;;;;4951446;28;20058;-59
2024/01/21 04:06:01;;;;;;;4.47;1.52;;;;;;;;;;4931360;28;20082;-58
2024/01/21 04:08:29;;;;;;;7.28;2.15;;;;;;;;;;4937989;28;20086;-58
2024/01/21 04:10:56;;;;;;;6.43;2.53;;;;;;;;;;4936355;28;20051;-58
2024/01/21 04:13:23;;;;;;;4.72;1.95;;;;;;;;;;4939216;28;20110;-58
2024/01/21 04:15:50;;;;;;;4.82;1.42;;;;;;;;;;4905481;28;20142;-58
2024/01/21 04:18:17;;;;;;;3.92;1.17;;;;;;;;;;4954669;28;20055;-58
2024/01/21 04:20:47;;;;;;;7.05;1.77;;;;;;;;;;4955769;28;20307;-58
2024/01/21 04:23:17;;;;;;;6.57;1.95;;;;;;;;;;4957997;28;20118;-57
2024/01/21 04:25:47;;;;;;;3.58;1.65;;;;;;;;;;4897436;28;20078;-58
2024/01/21 04:28:19;;;;;;;4.10;1.70;;;;;;;;;;4952351;28;20142;-58
2024/01/21 04:30:47;;;;;;;3.60;1.20;;;;;;;;;;4937480;28;20119;-58
2024/01/21 04:33:14;;;;;;;2.28;1.23;;;;;;;;;;4940112;28;20054;-58
2024/01/21 04:35:41;;;;;;;5.57;2.47;;;;;;;;;;4930838;28;20051;-57
2024/01/21 04:38:08;;;;;;;5.63;1.58;;;;;;;;;;4928182;28;20078;-58
2024/01/21 04:40:35;;;;;;;4.15;1.30;;;;;;;;;;4934694;28;20066;-58
2024/01/21 04:43:03;;;;;;;6.45;2.35;;;;;;;;;;4938871;28;20090;-58
2024/01/21 04:45:30;;;;;;;4.05;1.63;;;;;;;;;;4935826;28;20059;-57
2024/01/21 04:47:59;;;;;;;6.05;1.60;;;;;;;;;;4946717;28;20058;-58
2024/01/21 04:50:26;;;;;;;4.75;1.70;;;;;;;;;;4956670;28;20072;-58
2024/01/21 04:52:53;;;;;;;5.45;1.65;;;;;;;;;;4951930;28;20238;-58
2024/01/21 04:55:20;;;;;;;4.28;1.48;;;;;;;;;;4951568;28;20133;-58
2024/01/21 04:57:52;;;;;;;4.22;1.63;;;;;;;;;;4969595;28;20055;-58
2024/01/21 05:00:20;;;;;;;5.15;1.90;;;;;;;;;;4953294;28;20063;-58
2024/01/21 05:02:47;;;;;;;5.00;2.05;;;;;;;;;;4960226;28;20074;-59
2024/01/21 05:05:14;;;;;;;4.00;1.65;;;;;;;;;;4946717;28;20054;-59
2024/01/21 05:07:43;;;;;;;5.82;2.25;;;;;;;;;;4956473;28;20149;-59
2024/01/21 05:10:11;;;;;;;3.92;1.35;;;;;;;;;;4947439;28;20046;-58
2024/01/21 05:12:38;;;;;;;6.47;2.03;;;;;;;;;;4954184;28;20113;-59
2024/01/21 05:15:05;;;;;;;3.15;1.42;;;;;;;;;;4951342;28;20399;-59
2024/01/21 05:17:34;;;;;;;5.57;1.50;;;;;;;;;;4959384;28;20129;-59
2024/01/21 05:20:00;;;;;;;4.45;1.35;;;;;;;;;;4952220;28;20265;-59
2024/01/21 05:22:29;;;;;;;3.83;1.38;;;;;;;;;;4958154;28;20062;-59
2024/01/21 05:24:56;;;;;;;;;;;;;;;;;;4925729;28;20074;-58
2024/01/21 05:27:23;;;;;;;5.00;1.00;;;;;;;;;;4943560;28;19933;-59
2024/01/21 05:29:49;;;;;;;2.88;1.33;;;;;;;;;;4925431;28;20153;-58
2024/01/21 05:32:16;;;;;;;3.15;1.50;;;;;;;;;;4932317;28;20059;-60
2024/01/21 05:34:44;;;;;;;4.95;1.67;;;;;;;;;;4920585;28;20047;-59
2024/01/21 05:37:11;;;;;;;5.20;1.90;;;;;;;;;;4968842;28;20379;-58
2024/01/21 05:39:38;;;;;;;4.38;1.80;;;;;;;;;;4956170;28;20150;-58
2024/01/21 05:42:07;;;;;;;4.53;1.92;;;;;;;;;;4949956;28;20252;-59
2024/01/21 05:44:36;;;;;;;7.45;2.08;;;;;;;;;;4905411;28;20099;-59
2024/01/21 05:47:02;;;;;;;;;;;;;;;;;;4938042;28;20171;-59
2024/01/21 05:49:30;;;;;;;4.35;1.60;;;;;;;;;;4942865;28;19926;-59
2024/01/21 05:51:58;;;;;;;2.92;1.30;;;;;;;;;;4921707;28;20055;-59
2024/01/21 05:54:26;;;;;;;4.20;1.40;;;;;;;;;;4889885;28;20183;-59
2024/01/21 05:56:53;;;;;;;4.07;1.75;;;;;;;;;;4948008;28;20187;-59
2024/01/21 05:59:21;;;;;;;4.20;1.58;;;;;;;;;;4954742;28;20043;-59
2024/01/21 06:01:48;;;;;;;5.43;1.45;;;;;;;;;;4954759;28;20058;-56
2024/01/21 06:04:15;;;;;;;6.50;1.63;;;;;;;;;;4929787;28;20049;-58
2024/01/21 06:06:42;;;;;;;9.75;2.97;;;;;;;;;;4953960;28;20138;-58
2024/01/21 06:09:13;;;;;;;4.18;1.65;;;;;;;;;;4968945;28;20046;-58
2024/01/21 06:11:51;;;;;;;5.50;1.95;;;;;;;;;;4956300;28;20055;-58
2024/01/21 06:14:20;;;;;;;5.90;2.05;;;;;;;;;;4933226;28;20059;-58
2024/01/21 06:16:47;;;;;;;5.95;2.10;;;;;;;;;;4957517;28;20062;-58
2024/01/21 06:19:14;;;;;;;5.55;1.95;;;;;;;;;;4956604;28;20100;-58
2024/01/21 06:21:43;;;;;;;5.82;1.92;;;;;;;;;;4956249;28;20153;-59
2024/01/21 06:24:13;;;;;;;8.40;2.22;;;;;;;;;;4938004;28;20058;-57
2024/01/21 06:26:44;;;;;;;6.40;1.95;;;;;;;;;;4955871;28;20063;-60
2024/01/21 06:29:11;;;;;;;6.15;2.42;;;;;;;;;;4956775;28;20114;-56
2024/01/21 06:31:38;;;;;;;6.63;1.98;;;;;;;;;;4954927;28;20050;-58
2024/01/21 06:34:05;;;;;;;6.93;2.33;;;;;;;;;;4935293;28;20082;-58
2024/01/21 06:36:34;;;;;;;6.63;1.75;;;;;;;;;;4956462;28;20085;-58
2024/01/21 06:39:01;;;;;;;7.45;2.55;;;;;;;;;;4956760;28;20058;-58
2024/01/21 06:41:29;;;;;;;3.38;1.15;;;;;;;;;;4956619;28;20058;-59
2024/01/21 06:43:56;;;;;;;5.15;1.70;;;;;;;;;;4960443;28;20056;-61
2024/01/21 06:46:23;;;;;;;8.35;2.80;;;;;;;;;;4932796;28;20168;-58
2024/01/21 06:48:50;;;;;;;11.23;2.95;;;;;;;;;;4937529;28;20055;-59
2024/01/21 06:51:31;;;;;;;9.15;2.67;;;;;;;;;;4937765;28;20043;-59
2024/01/21 06:53:58;;;;;;;9.68;2.65;;;;;;;;;;4920197;28;20055;-59
2024/01/21 06:56:25;;;;;;;5.50;2.03;;;;;;;;;;4964182;28;20254;-59
2024/01/21 06:58:53;;;;;;;6.75;2.60;;;;;;;;;;4953189;28;20073;-58
2024/01/21 07:01:20;;;;;;;6.03;2.60;;;;;;;;;;4955411;28;20116;-59
2024/01/21 07:03:47;;;;;;;5.28;1.98;;;;;;;;;;4953439;28;20058;-60
2024/01/21 07:06:14;;;;;;;5.20;2.20;;;;;;;;;;4917229;28;20065;-59
2024/01/21 07:08:41;;;;;;;5.47;2.45;;;;;;;;;;4954922;28;20065;-59
2024/01/21 07:11:08;;;;;;;5.57;2.33;;;;;;;;;;4955807;28;20055;-60
2024/01/21 07:13:35;;;;;;;6.40;2.78;;;;;;;;;;4953301;28;20047;-58
2024/01/21 07:16:04;;;;;;;4.65;2.05;;;;;;;;;;4923918;28;20105;-59
2024/01/21 07:18:31;;;;;;;8.40;3.03;;;;;;;;;;4936240;28;20047;-59
2024/01/21 07:21:03;;;;;;;6.75;1.98;;;;;;;;;;4937524;28;20051;-59
2024/01/21 07:23:30;;;;;;;5.35;2.03;;;;;;;;;;4942104;28;20066;-58
2024/01/21 07:25:58;;;;;;;5.68;2.55;;;;;;;;;;4923061;28;20074;-58
2024/01/21 07:28:25;;;;;;;9.97;3.10;;;;;;;;;;4942659;29;20055;-58
2024/01/21 07:30:52;;;;;;;5.88;1.88;;;;;;;;;;4941172;28;20338;-59
2024/01/21 07:33:20;;;;;;;7.68;2.55;;;;;;;;;;4942994;29;20090;-59
2024/01/21 07:35:55;;;;;;;6.35;2.20;;;;;;;;;;4923709;28;20129;-59
2024/01/21 07:38:22;;;;;;;9.40;3.35;;;;;;;;;;4948734;28;20051;-59
2024/01/21 07:40:49;;;;;;;6.72;2.33;;;;;;;;;;4958351;28;20223;-59
2024/01/21 07:43:16;;;;;;;6.55;2.80;;;;;;;;;;4940565;28;20083;-59
2024/01/21 07:45:46;;;;;;;4.78;2.08;;;;;;;;;;4932334;28;20146;-61
2024/01/21 07:48:12;;;;;;;6.63;2.17;;;;;;;;;;4935969;28;20123;-59
2024/01/21 07:50:41;;;;;;;7.22;2.05;;;;;;;;;;4946825;28;20049;-59
2024/01/21 07:53:08;;;;;;;;;;;;;;;;;;4939726;28;20047;-60
2024/01/21 07:55:37;;;;;;;4.65;1.95;;;;;;;;;;4904430;29;19926;-60
2024/01/21 07:58:06;;;;;;;8.35;1.70;;;;;;;;;;4948340;28;20055;-59
2024/01/21 08:00:33;;;;;;;3.53;1.73;;;;;;;;;;4939706;28;20059;-59
2024/01/21 08:03:02;;;;;;;4.45;2.10;;;;;;;;;;4939151;29;20044;-59
2024/01/21 08:05:32;;;;;;;10.55;3.67;;;;;;;;;;4930878;28;20081;-60
2024/01/21 08:08:02;;;;;;;6.95;2.55;;;;;;;;;;4953170;28;20105;-59
2024/01/21 08:10:31;;;;;;;7.32;2.88;;;;;;;;;;4960355;28;20078;-59
2024/01/21 08:13:07;;;;;;;5.03;1.60;;;;;;;;;;4957427;28;20069;-59
2024/01/21 08:15:39;;;;;;;7.88;2.38;;;;;;;;;;4944663;28;20122;-59
2024/01/21 08:18:07;;;;;;;6.88;2.10;;;;;;;;;;4971812;28;20042;-60
2024/01/21 08:20:34;;;;;;;4.63;1.95;;;;;;;;;;4959010;28;20105;-60
2024/01/21 08:23:04;;;;;;;8.30;3.17;;;;;;;;;;4959103;28;20051;-60
2024/01/21 08:25:34;;;;;;;7.47;2.63;;;;;;;;;;4917917;28;20069;-59
2024/01/21 08:28:02;;;;;;;9.02;3.45;;;;;;;;;;4937662;28;20488;-59
2024/01/21 08:30:30;;;;;;;7.30;2.50;;;;;;;;;;4940462;28;20063;-60
2024/01/21 08:32:57;;;;;;;3.13;1.13;;;;;;;;;;4938774;28;20047;-59
2024/01/21 08:35:28;;;;;;;9.82;3.35;;;;;;;;;;4867342;28;20162;-59
2024/01/21 08:38:02;;;;;;;9.50;3.25;;;;;;;;;;4964437;28;20065;-63
2024/01/21 08:40:31;;;;;;;8.38;2.55;;;;;;;;;;4961703;28;20069;-60
2024/01/21 08:43:01;;;;;;;7.90;3.25;;;;;;;;;;4958496;28;20050;-60
2024/01/21 08:45:37;;;;;;;14.00;3.60;;;;;;;;;;4908271;28;20058;-60
2024/01/21 08:48:14;;;;;;;8.05;2.10;;;;;;;;;;4960972;28;20142;-60
2024/01/21 08:50:48;;;;;;;5.05;2.30;;;;;;;;;;4957324;28;20059;-60
2024/01/21 08:53:17;;;;;;;7.78;3.22;;;;;;;;;;4957953;28;20050;-61
2024/01/21 08:55:57;;;;;;;6.93;2.33;;;;;;;;;;4933775;28;20054;-60
2024/01/21 08:58:26;;;;;;;4.80;1.88;;;;;;;;;;4957898;28;20038;-61
2024/01/21 09:00:55;;;;;;;5.97;2.22;;;;;;;;;;4959318;28;20059;-61
2024/01/21 09:03:28;;;;;;;8.07;2.88;;;;;;;;;;4963577;28;20047;-62
2024/01/21 09:06:12;;;;;;;12.05;2.92;;;;;;;;;;4907205;28;20178;-61
2024/01/21 09:08:44;;;;;;;7.43;2.60;;;;;;;;;;4943871;28;20071;-60
2024/01/21 09:11:18;;;;;;;6.22;2.28;;;;;;;;;;4932859;28;20222;-60
2024/01/21 09:13:50;;;;;;;6.07;1.95;;;;;;;;;;4921258;29;20058;-61
2024/01/21 09:16:19;;;;;;;7.15;2.30;;;;;;;;;;4868424;28;20051;-61
2024/01/21 09:18:49;;;;;;;9.07;2.53;;;;;;;;;;4936336;28;20047;-63
2024/01/21 09:21:18;;;;;;;4.55;2.00;;;;;;;;;;4928884;28;20143;-61
2024/01/21 09:23:46;;;;;;;8.85;2.85;;;;;;;;;;4930663;28;20048;-64
2024/01/21 09:26:27;;;;;;;5.47;1.85;;;;;;;;;;4934139;28;20050;-60
2024/01/21 09:28:57;;;;;;;5.18;2.20;;;;;;;;;;4955127;28;20099;-61
2024/01/21 09:31:29;;;;;;;4.18;1.95;;;;;;;;;;4967529;28;20053;-60
2024/01/21 09:34:02;;;;;;;7.45;2.72;;;;;;;;;;4946137;28;20152;-60
2024/01/21 09:36:34;;;;;;;7.18;2.05;;;;;;;;;;4851013;28;20048;-60
2024/01/21 09:39:19;;;;;;;6.97;2.28;;;;;;;;;;4882745;28;20147;-61
2024/01/21 09:41:54;;;;;;;9.55;3.35;;;;;;;;;;4939609;28;20043;-60
2024/01/21 09:44:29;;;;;;;6.68;2.58;;;;;;;;;;4919777;28;20120;-61
2024/01/21 09:46:58;;;;;;;5.53;2.45;;;;;;;;;;4879108;28;20061;-61
2024/01/21 09:49:26;;;;;;;5.10;1.50;;;;;;;;;;4953642;28;20142;-61
2024/01/21 09:51:56;;;;;;;4.70;2.15;;;;;;;;;;4949105;28;20113;-62
2024/01/21 09:54:25;;;;;;;6.78;2.45;;;;;;;;;;4968104;28;20232;-60
2024/01/21 09:56:55;;;;;;;;;;;;;;;;;;4851721;28;20060;-62
2024/01/21 09:59:28;;;;;;;6.30;2.55;;;;;;;;;;4895010;29;19938;-61
2024/01/21 10:02:21;;;;;;;8.30;2.67;;;;;;;;;;4888486;29;20138;-60
2024/01/21 10:04:54;;;;;;;8.55;2.47;;;;;;;;;;4885581;28;20059;-60
2024/01/21 10:07:25;;;;;;;5.45;2.45;;;;;;;;;;4885793;29;20262;-62
2024/01/21 10:09:58;;;;;;;5.25;1.70;;;;;;;;;;4958289;28;20043;-62
2024/01/21 10:12:27;;;;;;;6.65;2.70;;;;;;;;;;4955490;28;20046;-62
2024/01/21 10:14:58;;;;;;;7.32;2.92;;;;;;;;;;4932084;28;20047;-62
2024/01/21 10:17:33;;;;;;;6.03;2.47;;;;;;;;;;4932116;28;20055;-62
2024/01/21 10:20:26;;;;;;;4.63;2.17;;;;;;;;;;4925256;28;20058;-62
2024/01/21 10:23:19;;;;;;;7.35;2.40;;;;;;;;;;4932187;28;20059;-62
2024/01/21 10:25:50;;;;;;;7.72;2.63;;;;;;;;;;4912257;28;20050;-61
2024/01/21 10:28:22;;;;;;;8.13;2.42;;;;;;;;;;4933555;28;20077;-62
2024/01/21 10:30:50;;;;;;;7.05;2.38;;;;;;;;;;4927793;28;20054;-62
2024/01/21 10:33:21;;;;;;;9.70;3.30;;;;;;;;;;4944151;28;20071;-62
2024/01/21 10:35:51;;;;;;;10.38;4.05;;;;;;;;;;4899171;28;20057;-62
2024/01/21 10:38:28;;;;;;;9.13;2.80;;;;;;;;;;4953784;28;21809;-62
2024/01/21 10:41:28;;;;;;;;;;;;;;;;;;;;;
2024/01/21 10:44:00;;;;;;;7.03;2.60;;;;;;;;;;4956229;28;20109;-63
2024/01/21 10:46:28;;;;;;;4.97;2.10;;;;;;;;;;4863784;28;20053;-63
2024/01/21 10:49:02;;;;;;;6.22;2.55;;;;;;;;;;4908741;29;20048;-64
2024/01/21 10:51:30;;;;;;;6.47;2.42;;;;;;;;;;4943986;28;20217;-63
2024/01/21 10:54:01;;;;;;;6.60;2.33;;;;;;;;;;4950950;28;20062;-64
2024/01/21 10:56:34;;;;;;;8.05;2.50;;;;;;;;;;4843528;28;20057;-64
2024/01/21 10:59:05;;;;;;;8.82;2.63;;;;;;;;;;4924109;28;20047;-63
2024/01/21 11:01:43;;;;;;;;;;;;;;;;;;;;;
2024/01/21 11:04:16;;;;;;;12.82;2.67;;;;;;;;;;4927312;28;20053;-62
2024/01/21 11:07:03;;;;;;;6.13;2.75;;;;;;;;;;4928147;28;20065;-62
2024/01/21 11:09:36;;;;;;;6.03;2.03;;;;;;;;;;4952780;28;20068;-62
2024/01/21 11:12:06;;;;;;;6.10;2.28;;;;;;;;;;4951648;28;20051;-62
2024/01/21 11:14:36;;;;;;;7.63;2.53;;;;;;;;;;4942886;28;20059;-61
2024/01/21 11:17:32;;;;;;;5.60;2.50;;;;;;;;;;4924757;28;20046;-63
2024/01/21 11:20:24;;;;;;;8.88;3.85;;;;;;;;;;4892188;28;20210;-63
2024/01/21 11:22:58;;;;;;;5.47;2.30;;;;;;;;;;4961819;28;20059;-63
2024/01/21 11:25:36;;;;;;;5.18;2.13;;;;;;;;;;4918252;28;20059;-62
2024/01/21 11:28:29;;;;;;;7.00;2.67;;;;;;;;;;4936397;28;20059;-63
2024/01/21 11:31:05;;;;;;;5.07;2.10;;;;;;;;;;4949498;28;20197;-64
2024/01/21 11:33:34;;;;;;;9.30;2.78;;;;;;;;;;4952613;28;20088;-63
2024/01/21 11:36:01;;;;;;;4.35;1.95;;;;;;;;;;4923235;28;20066;-64
2024/01/21 11:38:30;;;;;;;8.90;2.70;;;;;;;;;;4951437;28;20069;-64
2024/01/21 11:41:05;;;;;;;;;;;;;;;;;;4953700;28;20220;-63
2024/01/21 11:43:34;;;;;;;6.88;2.42;;;;;;;;;;4953926;28;19926;-63
2024/01/21 11:46:07;;;;;;;;;;;;;;;;;;4913197;28;20062;-63
2024/01/21 11:48:37;;;;;;;7.65;2.70;;;;;;;;;;4945021;28;20004;-65
2024/01/21 11:51:05;;;;;;;5.80;2.28;;;;;;;;;;4928952;28;20051;-64
2024/01/21 11:53:33;;;;;;;9.27;3.05;;;;;;;;;;4936582;28;20074;-64
2024/01/21 11:56:00;;;;;;;9.82;3.15;;;;;;;;;;4911817;28;20105;-64
2024/01/21 11:58:27;;;;;;;7.70;3.03;;;;;;;;;;4948779;28;20081;-64
2024/01/21 12:00:56;;;;;;;5.97;2.30;;;;;;;;;;4769074;28;20091;-63
2024/01/21 12:03:23;;;;;;;9.68;3.63;;;;;;;;;;4909588;28;20086;-63
2024/01/21 12:05:58;;;;;;;8.25;2.75;;;;;;;;;;4951739;28;20090;-64
2024/01/21 12:08:28;;;;;;;8.00;2.80;;;;;;;;;;4949466;28;20074;-64
2024/01/21 12:10:58;;;;;;;6.78;2.70;;;;;;;;;;4902582;28;20054;-64
2024/01/21 12:13:27;;;;;;;5.57;2.05;;;;;;;;;;4940394;28;20051;-62
2024/01/21 12:15:56;;;;;;;6.28;2.40;;;;;;;;;;4937137;28;20176;-63
2024/01/21 12:18:24;;;;;;;7.72;2.55;;;;;;;;;;4939456;28;20061;-63
2024/01/21 12:20:55;;;;;;;5.97;2.30;;;;;;;;;;4931332;28;20129;-63
2024/01/21 12:23:22;;;;;;;7.18;2.90;;;;;;;;;;4960255;28;20082;-63
2024/01/21 12:26:01;;;;;;;8.52;2.22;;;;;;;;;;4956338;28;20174;-63
2024/01/21 12:28:28;;;;;;;8.30;2.90;;;;;;;;;;4958543;28;20054;-63
2024/01/21 12:31:00;;;;;;;10.43;2.65;;;;;;;;;;4905112;28;20065;-64
2024/01/21 12:33:27;;;;;;;5.85;2.30;;;;;;;;;;4943570;28;20051;-64
2024/01/21 12:35:57;;;;;;;6.90;2.47;;;;;;;;;;4957397;28;20055;-63
2024/01/21 12:38:25;;;;;;;4.95;2.35;;;;;;;;;;4960638;28;20058;-63
2024/01/21 12:40:58;;;;;;;4.43;1.58;;;;;;;;;;4908324;28;20259;-64
2024/01/21 12:43:28;;;;;;;9.93;2.78;;;;;;;;;;4961722;28;20051;-65
2024/01/21 12:46:10;;;;;;;;;;;;;;;;;;;;;
2024/01/21 12:48:40;;;;;;;8.15;2.65;;;;;;;;;;4958285;28;20062;-64
2024/01/21 12:51:18;;;;;;;7.80;3.00;;;;;;;;;;4904898;28;20048;-64
2024/01/21 12:53:54;;;;;;;5.88;2.72;;;;;;;;;;4901294;29;20087;-65
2024/01/21 12:56:24;;;;;;;6.40;2.15;;;;;;;;;;4894035;29;20056;-66
2024/01/21 12:58:55;;;;;;;5.00;2.15;;;;;;;;;;4918680;29;20063;-65
2024/01/21 13:01:28;;;;;;;8.52;3.03;;;;;;;;;;4847834;28;20060;-65
2024/01/21 13:03:58;;;;;;;8.65;2.72;;;;;;;;;;4938918;28;20154;-66
2024/01/21 13:06:46;;;;;;;5.75;2.60;;;;;;;;;;4921765;28;20074;-65
2024/01/21 13:09:16;;;;;;;4.60;2.13;;;;;;;;;;4920398;28;20115;-65
2024/01/21 13:11:52;;;;;;;5.90;2.17;;;;;;;;;;4853822;28;20052;-65
2024/01/21 13:14:21;;;;;;;8.45;2.72;;;;;;;;;;4907113;29;20137;-66
2024/01/21 13:16:53;;;;;;;9.55;3.10;;;;;;;;;;4920457;28;20055;-66
2024/01/21 13:19:20;;;;;;;8.95;3.05;;;;;;;;;;4923403;28;20125;-65
2024/01/21 13:22:06;;;;;;;6.80;2.58;;;;;;;;;;4842334;28;20060;-65
2024/01/21 13:25:03;;;;;;;11.93;3.35;;;;;;;;;;4913737;29;20090;-67
2024/01/21 13:27:45;;;;;;;6.18;2.30;;;;;;;;;;4917442;29;20134;-66
2024/01/21 13:33:10;;;;;;;7.03;2.58;;;;;;;;;;4878834;29;20095;-65
2024/01/21 13:35:54;;;;;;;7.43;3.25;;;;;;;;;;4918704;29;20059;-65
2024/01/21 13:38:29;;;;;;;2.25;1.45;;;;;;;;;;4918030;29;20110;-66
2024/01/21 13:41:09;;;;;;;5.90;2.38;;;;;;;;;;4881537;29;20111;-64
2024/01/21 13:43:36;;;;;;;9.45;3.17;;;;;;;;;;4881938;29;20059;-66
2024/01/21 13:46:13;;;;;;;6.93;2.38;;;;;;;;;;4909145;29;20091;-64
2024/01/21 13:48:48;;;;;;;7.57;2.70;;;;;;;;;;4959766;28;20058;-64
2024/01/21 13:51:19;;;;;;;8.45;3.30;;;;;;;;;;4885038;28;20070;-65
2024/01/21 13:54:03;;;;;;;5.57;2.45;;;;;;;;;;4910100;29;20051;-66
2024/01/21 13:56:39;;;;;;;7.25;2.70;;;;;;;;;;4942445;28;20094;-66
2024/01/21 13:59:13;;;;;;;8.50;2.55;;;;;;;;;;4961112;28;20064;-67
2024/01/21 14:02:12;;;;;;;8.68;3.00;;;;;;;;;;4922127;28;20136;-66
2024/01/21 14:04:42;;;;;;;6.45;2.35;;;;;;;;;;4963173;28;20109;-67
2024/01/21 14:07:10;;;;;;;5.97;2.30;;;;;;;;;;4958565;28;20108;-66
2024/01/21 14:09:42;;;;;;;8.20;2.42;;;;;;;;;;4961401;28;20046;-67
2024/01/21 14:12:20;;;;;;;8.05;2.85;;;;;;;;;;4931113;28;20048;-67
2024/01/21 14:14:47;;;;;;;6.88;2.22;;;;;;;;;;4968762;28;20134;-65
2024/01/21 14:17:16;;;;;;;11.88;3.85;;;;;;;;;;4967793;28;20369;-66
2024/01/21 14:20:02;;;;;;;;;;;;;;;;;;;;;
2024/01/21 14:22:44;;;;;;;6.20;2.20;;;;;;;;;;4935380;28;20065;-67
2024/01/21 14:25:21;;;;;;;10.52;2.80;;;;;;;;;;4938196;28;20087;-66
2024/01/21 14:27:49;;;;;;;6.50;2.60;;;;;;;;;;4937895;28;20055;-67
2024/01/21 14:30:32;;;;;;;7.18;2.80;;;;;;;;;;4936016;28;20054;-68
2024/01/21 14:33:00;;;;;;;6.90;2.92;;;;;;;;;;4908353;28;20054;-65
2024/01/21 14:35:32;;;;;;;6.05;2.30;;;;;;;;;;4953773;28;20065;-64
2024/01/21 14:38:01;;;;;;;10.25;3.28;;;;;;;;;;4949727;28;20065;-67
2024/01/21 14:40:32;;;;;;;7.38;2.30;;;;;;;;;;4952950;28;20101;-66
2024/01/21 14:43:01;;;;;;;5.85;2.08;;;;;;;;;;4901257;28;20051;-65
2024/01/21 14:45:32;;;;;;;7.05;2.75;;;;;;;;;;4937307;29;20055;-66
2024/01/21 14:48:02;;;;;;;7.88;2.85;;;;;;;;;;4927032;28;20055;-66
2024/01/21 14:50:39;;;;;;;4.43;1.83;;;;;;;;;;4940272;28;20110;-65
2024/01/21 14:53:23;;;;;;;11.45;3.25;;;;;;;;;;4857511;28;20047;-67
2024/01/21 14:56:08;;;;;;;7.40;3.17;;;;;;;;;;4890685;29;20067;-67
2024/01/21 14:58:36;;;;;;;6.85;2.80;;;;;;;;;;4946009;28;20154;-65
2024/01/21 15:01:05;;;;;;;6.82;2.53;;;;;;;;;;4927452;28;20255;-66
2024/01/21 15:03:32;;;;;;;7.03;2.35;;;;;;;;;;4871299;29;20066;-66
2024/01/21 15:06:43;;;;;;;4.22;1.67;;;;;;;;;;4926549;28;20054;-66
2024/01/21 15:09:19;;;;;;;7.15;2.90;;;;;;;;;;4936113;28;20090;-66
2024/01/21 15:11:52;;;;;;;9.18;2.60;;;;;;;;;;4917978;28;20051;-66